createdAt,value
2022-11-15T00:01:08.774Z,4.35
2022-11-15T00:03:55.919Z,4.40
2022-11-15T00:06:42.893Z,4.40
2022-11-15T00:09:31.313Z,3.03
2022-11-15T00:12:18.934Z,1.40
2022-11-15T00:15:06.522Z,3.63
2022-11-15T00:17:53.996Z,1.95
2022-11-15T00:20:41.601Z,3.40
2022-11-15T00:23:29.246Z,3.55
2022-11-15T00:26:17.934Z,2.50
2022-11-15T00:29:05.051Z,3.28
2022-11-15T00:31:52.300Z,2.67
2022-11-15T00:34:39.896Z,1.92
2022-11-15T00:37:27.412Z,2.17
2022-11-15T00:40:16.270Z,2.60
2022-11-15T00:43:05.161Z,2.35
2022-11-15T00:45:52.340Z,3.65
2022-11-15T00:48:39.432Z,2.63
2022-11-15T00:51:26.888Z,2.88
2022-11-15T00:54:14.492Z,4.25
2022-11-15T00:57:02.072Z,4.25
2022-11-15T00:59:54.619Z,4.30
2022-11-15T01:02:44.809Z,3.60
2022-11-15T01:05:34.224Z,3.78
2022-11-15T01:08:21.574Z,3.80
2022-11-15T01:11:10.182Z,2.65
2022-11-15T01:13:58.261Z,2.63
2022-11-15T01:16:47.097Z,2.25
2022-11-15T01:19:34.341Z,2.40
2022-11-15T01:22:21.628Z,2.97
2022-11-15T01:25:08.963Z,3.50
2022-11-15T01:27:56.169Z,3.33
2022-11-15T01:30:43.527Z,1.77
2022-11-15T01:33:32.483Z,2.88
2022-11-15T01:36:20.868Z,3.15
2022-11-15T01:39:08.114Z,2.50
2022-11-15T01:41:55.191Z,2.38
2022-11-15T01:44:44.400Z,2.35
2022-11-15T01:47:33.953Z,3.97
2022-11-15T01:50:24.878Z,3.88
2022-11-15T01:53:12.347Z,2.85
2022-11-15T01:55:59.347Z,3.47
2022-11-15T01:58:47.920Z,2.97
2022-11-15T02:01:35.973Z,2.55
2022-11-15T02:04:25.559Z,3.40
2022-11-15T02:07:16.090Z,2.47
2022-11-15T02:10:06.872Z,1.85
2022-11-15T02:12:55.144Z,1.88
2022-11-15T02:15:48.816Z,1.55
2022-11-15T02:18:37.940Z,1.75
2022-11-15T02:21:27.760Z,1.75
2022-11-15T02:24:41.854Z,1.85
2022-11-15T02:27:49.931Z,1.45
2022-11-15T02:30:41.094Z,1.23
2022-11-15T02:33:33.635Z,2.30
2022-11-15T02:36:26.837Z,1.20
2022-11-15T02:39:17.897Z,1.48
2022-11-15T02:42:26.801Z,0.80
2022-11-15T02:45:15.694Z,2.80
2022-11-15T02:48:06.188Z,3.22
2022-11-15T02:50:54.185Z,2.05
2022-11-15T02:53:41.080Z,1.85
2022-11-15T02:56:27.991Z,1.27
2022-11-15T02:59:29.993Z,2.15
2022-11-15T03:02:23.028Z,3.97
2022-11-15T03:05:16.788Z,2.03
2022-11-15T03:08:07.883Z,1.83
2022-11-15T03:11:00.445Z,1.35
2022-11-15T03:13:51.792Z,1.88
2022-11-15T03:16:40.571Z,1.17
2022-11-15T03:19:32.815Z,1.23
2022-11-15T03:22:23.113Z,0.55
2022-11-15T03:25:12.840Z,2.67
2022-11-15T03:28:01.669Z,1.67
2022-11-15T03:30:50.340Z,1.85
2022-11-15T03:33:37.690Z,0.73
2022-11-15T03:36:26.156Z,2.05
2022-11-15T03:39:20.415Z,2.03
2022-11-15T03:42:13.767Z,1.67
2022-11-15T03:45:05.266Z,1.20
2022-11-15T03:47:55.849Z,1.98
2022-11-15T03:50:44.199Z,2.67
2022-11-15T03:53:33.425Z,1.05
2022-11-15T03:56:22.091Z,2.55
2022-11-15T03:59:09.159Z,1.85
2022-11-15T04:01:56.187Z,1.48
2022-11-15T04:04:43.407Z,0.38
2022-11-15T04:07:31.853Z,1.20
2022-11-15T04:10:19.488Z,1.45
2022-11-15T04:13:08.105Z,1.85
2022-11-15T04:15:55.083Z,0.98
2022-11-15T04:18:42.253Z,0.85
2022-11-15T04:22:01.247Z,1.88
2022-11-15T04:24:48.475Z,2.65
2022-11-15T04:27:36.015Z,2.78
2022-11-15T04:30:24.634Z,3.63
2022-11-15T04:33:12.111Z,1.95
2022-11-15T04:36:16.756Z,3.00
2022-11-15T04:39:06.662Z,4.63
2022-11-15T04:41:53.879Z,2.95
2022-11-15T04:44:41.180Z,4.10
2022-11-15T04:47:30.677Z,2.38
2022-11-15T04:50:18.127Z,1.95
2022-11-15T04:53:05.322Z,3.70
2022-11-15T04:55:52.387Z,4.00
2022-11-15T04:58:39.477Z,4.82
2022-11-15T05:01:26.529Z,3.92
2022-11-15T05:04:23.983Z,4.57
2022-11-15T05:07:11.409Z,2.85
2022-11-15T05:09:58.508Z,3.20
2022-11-15T05:12:45.556Z,2.95
2022-11-15T05:15:33.002Z,3.80
2022-11-15T05:18:23.556Z,3.75
2022-11-15T05:21:23.973Z,2.70
2022-11-15T05:24:12.307Z,2.30
2022-11-15T05:26:59.322Z,2.97
2022-11-15T05:29:46.858Z,5.35
2022-11-15T05:32:37.197Z,2.20
2022-11-15T05:35:29.651Z,2.95
2022-11-15T05:38:18.257Z,4.18
2022-11-15T05:41:06.020Z,3.95
2022-11-15T05:43:54.115Z,2.30
2022-11-15T05:46:42.347Z,2.13
2022-11-15T05:49:32.265Z,2.47
2022-11-15T05:52:21.931Z,4.57
2022-11-15T05:55:11.333Z,4.70
2022-11-15T05:57:58.730Z,4.25
2022-11-15T06:00:45.705Z,3.55
2022-11-15T06:03:33.352Z,4.05
2022-11-15T06:06:20.633Z,2.95
2022-11-15T06:09:07.735Z,3.72
2022-11-15T06:11:58.941Z,3.33
2022-11-15T06:14:46.170Z,10.30
2022-11-15T06:17:36.778Z,9.52
2022-11-15T06:20:23.762Z,6.35
2022-11-15T06:23:11.165Z,7.00
2022-11-15T06:26:00.166Z,9.43
2022-11-15T06:28:49.166Z,5.47
2022-11-15T06:31:36.217Z,8.50
2022-11-15T06:34:23.758Z,7.47
2022-11-15T06:37:11.022Z,4.30
2022-11-15T06:39:58.190Z,5.72
2022-11-15T06:42:45.174Z,4.18
2022-11-15T06:45:33.976Z,5.90
2022-11-15T06:48:21.279Z,5.85
2022-11-15T06:51:09.385Z,5.53
2022-11-15T06:53:56.708Z,3.20
2022-11-15T06:56:44.142Z,4.38
2022-11-15T06:59:34.205Z,3.40
2022-11-15T07:02:27.216Z,3.17
2022-11-15T07:05:14.541Z,4.18
2022-11-15T07:08:02.661Z,3.15
2022-11-15T07:10:50.014Z,3.17
2022-11-15T07:13:38.484Z,2.97
2022-11-15T07:16:27.677Z,2.10
2022-11-15T07:19:16.534Z,2.50
2022-11-15T07:22:03.911Z,3.30
2022-11-15T07:24:51.154Z,3.65
2022-11-15T07:27:38.981Z,2.50
2022-11-15T07:30:26.889Z,2.10
2022-11-15T07:33:13.925Z,5.47
2022-11-15T07:36:04.166Z,2.50
2022-11-15T07:38:51.514Z,3.28
2022-11-15T07:41:38.579Z,5.00
2022-11-15T07:44:25.949Z,2.25
2022-11-15T07:47:13.054Z,2.15
2022-11-15T07:50:00.273Z,4.30
2022-11-15T07:52:49.472Z,1.55
2022-11-15T07:55:36.933Z,2.70
2022-11-15T07:58:36.158Z,2.08
2022-11-15T08:01:23.206Z,1.55
2022-11-15T08:04:12.769Z,1.75
2022-11-15T08:07:00.119Z,3.08
2022-11-15T08:09:49.712Z,1.95
2022-11-15T08:12:36.842Z,1.85
2022-11-15T08:15:24.102Z,3.92
2022-11-15T08:18:12.927Z,4.32
2022-11-15T08:21:01.609Z,1.73
2022-11-15T08:23:49.001Z,3.08
2022-11-15T08:26:37.757Z,2.60
2022-11-15T08:29:25.230Z,4.65
2022-11-15T08:32:12.910Z,2.10
2022-11-15T08:35:00.588Z,2.63
2022-11-15T08:37:47.664Z,2.92
2022-11-15T08:40:35.878Z,3.30
2022-11-15T08:43:24.495Z,2.97
2022-11-15T08:46:14.278Z,2.55
2022-11-15T08:49:01.527Z,3.35
2022-11-15T08:51:48.479Z,2.50
2022-11-15T08:54:35.970Z,3.10
2022-11-15T08:57:23.478Z,4.07
2022-11-15T09:00:14.584Z,2.72
2022-11-15T09:03:01.808Z,3.08
2022-11-15T09:05:49.088Z,3.47
2022-11-15T09:08:51.588Z,4.30
2022-11-15T09:11:47.701Z,3.88
2022-11-15T09:14:35.078Z,3.20
2022-11-15T09:17:25.217Z,2.80
2022-11-15T09:20:12.415Z,2.13
2022-11-15T09:23:02.153Z,2.78
2022-11-15T09:25:49.122Z,2.63
2022-11-15T09:28:36.607Z,1.70
2022-11-15T09:31:24.009Z,3.95
2022-11-15T09:34:12.717Z,1.63
2022-11-15T09:36:59.946Z,2.83
2022-11-15T09:39:47.142Z,5.50
2022-11-15T09:42:42.446Z,5.10
2022-11-15T09:45:33.550Z,3.15
2022-11-15T09:48:54.207Z,4.75
2022-11-15T09:51:48.993Z,4.60
2022-11-15T09:54:51.525Z,4.18
2022-11-15T09:57:16.216Z,3.45
2022-11-15T09:59:50.524Z,5.82
2022-11-15T10:02:26.867Z,3.13
2022-11-15T10:04:56.048Z,3.75
2022-11-15T10:07:28.855Z,3.10
2022-11-15T10:10:03.105Z,2.28
2022-11-15T10:12:32.803Z,3.63
2022-11-15T10:15:03.296Z,5.85
2022-11-15T10:17:44.025Z,3.90
2022-11-15T10:20:16.063Z,3.58
2022-11-15T10:22:49.480Z,5.60
2022-11-15T10:25:22.451Z,6.70
2022-11-15T10:27:56.664Z,3.80
2022-11-15T10:30:26.075Z,4.05
2022-11-15T10:32:55.008Z,3.15
2022-11-15T10:35:26.190Z,5.85
2022-11-15T10:38:06.703Z,3.97
2022-11-15T10:40:35.827Z,2.67
2022-11-15T10:43:08.484Z,3.95
2022-11-15T10:45:37.333Z,3.63
2022-11-15T10:48:25.618Z,1.80
2022-11-15T10:50:55.120Z,5.18
2022-11-15T10:53:29.967Z,5.03
2022-11-15T10:56:00.598Z,2.97
2022-11-15T10:58:33.955Z,5.10
2022-11-15T11:01:13.771Z,6.95
2022-11-15T11:03:43.477Z,3.90
2022-11-15T11:06:13.407Z,5.90
2022-11-15T11:08:55.371Z,5.60
2022-11-15T11:11:24.258Z,2.72
2022-11-15T11:13:53.057Z,3.47
2022-11-15T11:16:29.121Z,5.78
2022-11-15T11:19:04.966Z,3.38
2022-11-15T11:21:40.416Z,3.58
2022-11-15T11:24:13.531Z,2.40
2022-11-15T11:26:45.096Z,3.05
2022-11-15T11:29:23.041Z,4.13
2022-11-15T11:31:58.083Z,5.15
2022-11-15T11:34:36.068Z,3.58
2022-11-15T11:37:10.448Z,3.90
2022-11-15T11:39:46.284Z,2.65
2022-11-15T11:42:18.048Z,4.07
2022-11-15T11:44:51.204Z,4.40
2022-11-15T11:49:52.276Z,5.80
2022-11-15T11:52:24.785Z,3.65
2022-11-15T11:55:01.254Z,4.70
2022-11-15T11:57:35.992Z,4.18
2022-11-15T12:00:07.777Z,4.72
2022-11-15T12:02:47.652Z,4.80
2022-11-15T12:05:18.803Z,5.03
2022-11-15T12:07:49.638Z,5.40
2022-11-15T12:10:24.704Z,8.70
2022-11-15T12:12:58.004Z,6.65
2022-11-15T12:15:28.445Z,6.80
2022-11-15T12:17:57.747Z,5.18
2022-11-15T12:20:28.039Z,6.20
2022-11-15T12:22:58.518Z,5.15
2022-11-15T12:25:32.251Z,7.80
2022-11-15T12:28:04.453Z,6.88
2022-11-15T12:30:44.891Z,7.40
2022-11-15T12:33:28.441Z,6.32
2022-11-15T12:36:00.435Z,4.47
2022-11-15T12:38:44.132Z,6.18
2022-11-15T12:41:18.368Z,5.60
2022-11-15T12:43:47.870Z,6.85
2022-11-15T12:46:22.958Z,5.45
2022-11-15T12:49:06.587Z,5.15
2022-11-15T12:52:06.335Z,6.20
2022-11-15T12:54:54.973Z,4.38
2022-11-15T12:57:41.692Z,7.30
2022-11-15T13:00:29.068Z,6.28
2022-11-15T13:03:12.581Z,3.72
2022-11-15T13:06:08.037Z,5.53
2022-11-15T13:09:00.517Z,3.55
2022-11-15T13:11:45.257Z,4.20
2022-11-15T13:14:31.398Z,4.55
2022-11-15T13:17:01.300Z,4.13
2022-11-15T13:19:31.463Z,5.47
2022-11-15T13:22:17.078Z,4.63
2022-11-15T13:24:47.212Z,3.97
2022-11-15T13:27:18.301Z,4.50
2022-11-15T13:29:47.014Z,6.03
2022-11-15T13:32:16.499Z,5.88
2022-11-15T13:34:52.299Z,5.38
2022-11-15T13:37:32.350Z,5.00
2022-11-15T13:40:15.874Z,5.50
2022-11-15T13:42:46.205Z,4.50
2022-11-15T13:45:17.335Z,4.93
2022-11-15T13:47:46.047Z,5.18
2022-11-15T13:50:15.357Z,5.93
2022-11-15T13:52:46.970Z,5.72
2022-11-15T13:55:16.679Z,4.88
2022-11-15T13:57:47.829Z,5.82
2022-11-15T14:00:31.894Z,4.63
2022-11-15T14:03:07.219Z,5.22
2022-11-15T14:05:35.836Z,8.57
2022-11-15T14:08:05.709Z,4.30
2022-11-15T14:10:36.036Z,5.60
2022-11-15T14:13:07.071Z,5.78
2022-11-15T14:15:36.835Z,4.30
2022-11-15T14:18:06.362Z,7.50
2022-11-15T14:20:38.254Z,4.97
2022-11-15T14:23:07.863Z,5.05
2022-11-15T14:25:38.905Z,5.38
2022-11-15T14:28:17.213Z,4.63
2022-11-15T14:30:48.344Z,3.55
2022-11-15T14:33:20.883Z,6.53
2022-11-15T14:35:49.827Z,5.88
2022-11-15T14:38:18.559Z,4.55
2022-11-15T14:40:47.407Z,5.85
2022-11-15T14:43:18.075Z,6.20
2022-11-15T14:45:46.926Z,6.00
2022-11-15T14:48:15.688Z,4.45
2022-11-15T14:50:44.619Z,7.18
2022-11-15T14:53:14.775Z,8.10
2022-11-15T14:55:43.632Z,8.15
2022-11-15T14:58:12.884Z,8.52
2022-11-15T15:00:43.703Z,5.68
2022-11-15T15:03:12.443Z,7.53
2022-11-15T15:05:42.751Z,6.53
2022-11-15T15:08:13.186Z,4.68
2022-11-15T15:10:43.814Z,5.43
2022-11-15T15:13:18.025Z,6.32
2022-11-15T15:15:48.448Z,6.97
2022-11-15T15:18:17.234Z,6.15
2022-11-15T15:20:47.399Z,4.53
2022-11-15T15:23:18.447Z,5.85
2022-11-15T15:25:49.063Z,7.05
2022-11-15T15:28:18.273Z,5.82
2022-11-15T15:30:48.504Z,5.15
2022-11-15T15:33:17.533Z,6.10
2022-11-15T15:35:46.491Z,6.82
2022-11-15T15:38:16.736Z,5.25
2022-11-15T15:40:45.517Z,3.95
2022-11-15T15:43:17.881Z,8.73
2022-11-15T15:45:48.136Z,6.70
2022-11-15T15:48:17.656Z,8.07
2022-11-15T15:50:47.198Z,7.28
2022-11-15T15:53:16.071Z,9.82
2022-11-15T15:55:45.322Z,8.50
2022-11-15T15:58:14.145Z,7.35
2022-11-15T16:00:42.966Z,6.20
2022-11-15T16:03:13.229Z,5.78
2022-11-15T16:05:42.332Z,8.43
2022-11-15T16:08:22.824Z,7.68
2022-11-15T16:10:51.880Z,10.98
2022-11-15T16:13:20.752Z,9.98
2022-11-15T16:15:52.179Z,9.75
2022-11-15T16:18:25.583Z,13.15
2022-11-15T16:20:57.813Z,11.68
2022-11-15T16:23:26.716Z,10.57
2022-11-15T16:25:56.904Z,14.35
2022-11-15T16:28:26.562Z,10.73
2022-11-15T16:31:02.582Z,14.68
2022-11-15T16:33:33.646Z,12.18
2022-11-15T16:36:02.968Z,12.57
2022-11-15T16:38:33.195Z,11.95
2022-11-15T16:41:02.458Z,14.15
2022-11-15T16:43:31.261Z,16.42
2022-11-15T16:46:00.332Z,11.15
2022-11-15T16:48:29.860Z,12.18
2022-11-15T16:51:01.180Z,8.95
2022-11-15T16:53:30.151Z,12.15
2022-11-15T16:55:59.043Z,11.13
2022-11-15T16:58:38.304Z,13.85
2022-11-15T17:01:07.313Z,14.13
2022-11-15T17:03:36.183Z,11.68
2022-11-15T17:06:11.403Z,13.32
2022-11-15T17:08:41.188Z,14.90
2022-11-15T17:11:10.508Z,17.90
2022-11-15T17:13:39.280Z,13.43
2022-11-15T17:16:09.355Z,10.68
2022-11-15T17:18:38.480Z,9.50
2022-11-15T17:21:10.743Z,11.05
2022-11-15T17:23:39.645Z,8.00
2022-11-15T17:26:28.238Z,5.25
2022-11-15T17:28:58.077Z,6.88
2022-11-15T17:31:27.371Z,11.98
2022-11-15T17:33:56.392Z,9.75
2022-11-15T17:36:26.869Z,8.60
2022-11-15T17:38:59.515Z,11.85
2022-11-15T17:44:11.150Z,17.25
2022-11-15T17:46:41.063Z,16.40
2022-11-15T17:49:10.094Z,17.98
2022-11-15T17:51:40.627Z,15.15
2022-11-15T17:54:12.258Z,16.38
2022-11-15T17:56:42.221Z,14.63
2022-11-15T17:59:15.946Z,13.15
2022-11-15T18:01:47.938Z,13.85
2022-11-15T18:04:17.918Z,12.82
2022-11-15T18:06:48.414Z,12.80
2022-11-15T18:09:17.514Z,13.18
2022-11-15T18:11:50.774Z,18.27
2022-11-15T18:14:20.439Z,11.43
2022-11-15T18:16:49.252Z,13.25
2022-11-15T18:19:18.269Z,14.73
2022-11-15T18:21:58.005Z,20.10
2022-11-15T18:24:27.734Z,13.63
2022-11-15T18:27:00.194Z,14.32
2022-11-15T18:29:29.479Z,18.10
2022-11-15T18:32:03.721Z,17.60
2022-11-15T18:34:34.769Z,18.30
2022-11-15T18:37:05.514Z,17.17
2022-11-15T18:39:34.410Z,17.42
2022-11-15T18:42:04.263Z,17.38
2022-11-15T18:44:33.520Z,20.65
2022-11-15T18:47:02.584Z,22.58
2022-11-15T18:49:31.812Z,17.83
2022-11-15T18:52:00.862Z,19.67
2022-11-15T18:54:32.029Z,13.52
2022-11-15T18:57:02.196Z,16.77
2022-11-15T18:59:31.783Z,18.75
2022-11-15T19:02:00.649Z,14.50
2022-11-15T19:04:29.530Z,14.35
2022-11-15T19:06:58.452Z,13.93
2022-11-15T19:09:33.092Z,14.77
2022-11-15T19:12:03.525Z,14.32
2022-11-15T19:14:32.691Z,14.68
2022-11-15T19:17:01.617Z,17.85
2022-11-15T19:19:31.607Z,16.70
2022-11-15T19:22:00.674Z,12.43
2022-11-15T19:24:39.218Z,13.48
2022-11-15T19:27:09.761Z,13.13
2022-11-15T19:29:40.837Z,13.25
2022-11-15T19:32:10.349Z,11.75
2022-11-15T19:34:41.907Z,10.30
2022-11-15T19:37:10.880Z,6.90
2022-11-15T19:39:41.277Z,8.57
2022-11-15T19:42:12.070Z,12.10
2022-11-15T19:44:40.840Z,9.93
2022-11-15T19:47:09.627Z,9.75
2022-11-15T19:49:43.769Z,9.77
2022-11-15T19:52:12.795Z,9.18
2022-11-15T19:54:41.952Z,7.07
2022-11-15T19:57:12.628Z,7.40
2022-11-15T19:59:41.372Z,7.40
2022-11-15T20:02:11.323Z,6.72
2022-11-15T20:04:40.394Z,9.60
2022-11-15T20:07:09.726Z,7.82
2022-11-15T20:09:39.330Z,10.10
2022-11-15T20:12:08.122Z,9.25
2022-11-15T20:14:52.279Z,8.93
2022-11-15T20:17:22.876Z,9.00
2022-11-15T20:19:55.077Z,10.30
2022-11-15T20:24:56.551Z,4.78
2022-11-15T20:27:25.514Z,7.13
2022-11-15T20:29:56.237Z,10.55
2022-11-15T20:32:24.940Z,7.75
2022-11-15T20:34:54.179Z,7.40
2022-11-15T20:37:23.207Z,8.25
2022-11-15T20:39:51.964Z,10.68
2022-11-15T20:42:20.818Z,10.27
2022-11-15T20:44:49.680Z,5.70
2022-11-15T20:47:20.317Z,11.80
2022-11-15T20:49:49.650Z,8.23
2022-11-15T20:52:18.639Z,10.68
2022-11-15T20:54:47.626Z,10.45
2022-11-15T20:57:17.118Z,12.55
2022-11-15T20:59:46.907Z,8.73
2022-11-15T21:02:15.997Z,8.48
2022-11-15T21:04:46.456Z,7.22
2022-11-15T21:07:15.404Z,7.20
2022-11-15T21:10:01.523Z,5.70
2022-11-15T21:12:33.461Z,6.70
2022-11-15T21:15:02.318Z,6.40
2022-11-15T21:17:32.023Z,4.82
2022-11-15T21:20:03.301Z,7.53
2022-11-15T21:22:32.895Z,6.28
2022-11-15T21:25:01.671Z,7.63
2022-11-15T21:27:32.458Z,8.35
2022-11-15T21:30:01.463Z,6.60
2022-11-15T21:32:32.962Z,7.57
2022-11-15T21:35:03.226Z,5.43
2022-11-15T21:37:32.436Z,7.50
2022-11-15T21:40:01.411Z,7.22
2022-11-15T21:42:31.835Z,4.90
2022-11-15T21:45:00.852Z,8.52
2022-11-15T21:47:32.464Z,7.32
2022-11-15T21:50:02.843Z,7.35
2022-11-15T21:52:31.948Z,7.53
2022-11-15T21:55:00.746Z,6.05
2022-11-15T21:57:30.436Z,7.28
2022-11-15T22:00:30.804Z,8.23
2022-11-15T22:02:59.803Z,6.30
2022-11-15T22:05:29.941Z,7.93
2022-11-15T22:07:58.607Z,7.75
2022-11-15T22:10:27.565Z,6.72
2022-11-15T22:12:56.583Z,5.63
2022-11-15T22:15:25.393Z,8.27
2022-11-15T22:18:01.385Z,6.00
2022-11-15T22:20:44.369Z,6.93
2022-11-15T22:23:13.917Z,7.95
2022-11-15T22:25:42.533Z,7.40
2022-11-15T22:28:11.172Z,7.85
2022-11-15T22:30:41.346Z,8.07
2022-11-15T22:33:10.040Z,7.75
2022-11-15T22:35:40.920Z,7.65
2022-11-15T22:38:09.813Z,5.60
2022-11-15T22:40:38.877Z,9.90
2022-11-15T22:43:07.886Z,7.20
2022-11-15T22:45:37.028Z,5.60
2022-11-15T22:48:11.492Z,5.55
2022-11-15T22:50:41.572Z,7.78
2022-11-15T22:53:10.238Z,8.07
2022-11-15T22:55:39.235Z,5.10
2022-11-15T22:58:08.881Z,9.07
2022-11-15T23:00:38.863Z,7.43
2022-11-15T23:03:07.647Z,5.30
2022-11-15T23:05:38.882Z,5.57
2022-11-15T23:08:09.297Z,5.88
2022-11-15T23:10:56.078Z,8.13
2022-11-15T23:13:25.454Z,6.78
2022-11-15T23:16:21.475Z,6.72
2022-11-15T23:18:54.447Z,3.40
2022-11-15T23:21:38.042Z,7.00
2022-11-15T23:24:10.484Z,4.43
2022-11-15T23:26:39.737Z,7.63
2022-11-15T23:29:09.578Z,5.57
2022-11-15T23:32:01.670Z,5.15
2022-11-15T23:34:31.582Z,5.47
2022-11-15T23:37:00.480Z,3.22
2022-11-15T23:39:30.661Z,6.03
2022-11-15T23:42:01.163Z,5.10
2022-11-15T23:44:33.317Z,3.88
2022-11-15T23:47:01.897Z,7.32
2022-11-15T23:49:30.564Z,7.82
2022-11-15T23:51:59.233Z,5.72
2022-11-15T23:54:28.090Z,10.02
2022-11-15T23:56:58.240Z,9.27
2022-11-15T23:59:26.932Z,5.93
